sensor_id;sensor_type;location;lat;lon;timestamp;pressure;altitude;pressure_sealevel;temperature;humidity
23223;BME280;11780;13.904;100.620;2023-05-01T00:00:28;100982.94;;;29.74;73.54
23223;BME280;11780;13.904;100.620;2023-05-01T00:02:59;100980.09;;;29.65;73.93
23223;BME280;11780;13.904;100.620;2023-05-01T00:05:30;100992.53;;;29.62;74.29
23223;BME280;11780;13.904;100.620;2023-05-01T00:08:00;100997.72;;;29.78;73.60
23223;BME280;11780;13.904;100.620;2023-05-01T00:10:30;100999.53;;;29.83;73.41
23223;BME280;11780;13.904;100.620;2023-05-01T00:13:04;101005.69;;;29.80;73.52
23223;BME280;11780;13.904;100.620;2023-05-01T00:15:35;101008.72;;;29.92;73.44
23223;BME280;11780;13.904;100.620;2023-05-01T00:18:06;101012.53;;;29.82;73.76
23223;BME280;11780;13.904;100.620;2023-05-01T00:20:36;101022.34;;;29.74;74.08
23223;BME280;11780;13.904;100.620;2023-05-01T00:23:07;101029.59;;;29.84;73.98
23223;BME280;11780;13.904;100.620;2023-05-01T00:25:37;101027.75;;;29.80;73.94
23223;BME280;11780;13.904;100.620;2023-05-01T00:28:07;101031.50;;;30.12;73.12
23223;BME280;11780;13.904;100.620;2023-05-01T00:30:38;101033.75;;;30.32;72.90
23223;BME280;11780;13.904;100.620;2023-05-01T00:33:09;101030.19;;;30.32;72.51
23223;BME280;11780;13.904;100.620;2023-05-01T00:35:43;101033.31;;;30.39;72.37
23223;BME280;11780;13.904;100.620;2023-05-01T00:38:13;101027.72;;;30.53;72.05
23223;BME280;11780;13.904;100.620;2023-05-01T00:40:44;101036.13;;;30.48;71.65
23223;BME280;11780;13.904;100.620;2023-05-01T00:43:15;101034.88;;;30.54;71.81
23223;BME280;11780;13.904;100.620;2023-05-01T00:45:45;101041.97;;;30.46;71.81
23223;BME280;11780;13.904;100.620;2023-05-01T00:48:16;101045.94;;;30.54;71.44
23223;BME280;11780;13.904;100.620;2023-05-01T00:50:46;101058.72;;;30.50;71.40
23223;BME280;11780;13.904;100.620;2023-05-01T00:53:19;101054.59;;;30.61;70.97
23223;BME280;11780;13.904;100.620;2023-05-01T00:55:49;101056.38;;;30.57;71.43
23223;BME280;11780;13.904;100.620;2023-05-01T00:58:20;101052.03;;;30.65;71.48
23223;BME280;11780;13.904;100.620;2023-05-01T01:00:51;101056.88;;;30.59;71.28
23223;BME280;11780;13.904;100.620;2023-05-01T01:03:22;101061.66;;;30.53;71.45
23223;BME280;11780;13.904;100.620;2023-05-01T01:11:56;101060.31;;;30.65;71.44
23223;BME280;11780;13.904;100.620;2023-05-01T01:14:35;101058.38;;;30.65;71.05
23223;BME280;11780;13.904;100.620;2023-05-01T01:23:02;101069.41;;;30.65;71.06
23223;BME280;11780;13.904;100.620;2023-05-01T01:25:56;101071.56;;;30.68;70.88
23223;BME280;11780;13.904;100.620;2023-05-01T01:34:43;101093.53;;;30.74;70.77
23223;BME280;11780;13.904;100.620;2023-05-01T01:37:21;101104.56;;;30.74;70.68
23223;BME280;11780;13.904;100.620;2023-05-01T01:40:01;101103.91;;;30.77;70.70
23223;BME280;11780;13.904;100.620;2023-05-01T01:42:42;101097.78;;;30.80;70.79
23223;BME280;11780;13.904;100.620;2023-05-01T01:45:21;101101.03;;;30.82;70.57
23223;BME280;11780;13.904;100.620;2023-05-01T01:47:55;101111.28;;;30.81;70.44
23223;BME280;11780;13.904;100.620;2023-05-01T01:50:27;101108.53;;;30.81;70.89
23223;BME280;11780;13.904;100.620;2023-05-01T01:52:57;101110.47;;;30.81;70.79
23223;BME280;11780;13.904;100.620;2023-05-01T01:55:30;101115.34;;;30.84;70.76
23223;BME280;11780;13.904;100.620;2023-05-01T01:58:02;101114.53;;;30.83;70.67
23223;BME280;11780;13.904;100.620;2023-05-01T02:00:35;101124.94;;;30.87;70.53
23223;BME280;11780;13.904;100.620;2023-05-01T02:03:06;101129.53;;;30.91;70.60
23223;BME280;11780;13.904;100.620;2023-05-01T02:05:39;101121.22;;;30.91;70.74
23223;BME280;11780;13.904;100.620;2023-05-01T02:08:12;101124.50;;;30.93;70.42
23223;BME280;11780;13.904;100.620;2023-05-01T02:10:44;101127.59;;;30.92;70.41
23223;BME280;11780;13.904;100.620;2023-05-01T02:13:17;101137.50;;;30.93;70.51
23223;BME280;11780;13.904;100.620;2023-05-01T02:15:49;101134.75;;;30.93;70.01
23223;BME280;11780;13.904;100.620;2023-05-01T02:18:20;101130.22;;;30.97;70.03
23223;BME280;11780;13.904;100.620;2023-05-01T02:20:51;101129.41;;;30.96;69.98
23223;BME280;11780;13.904;100.620;2023-05-01T02:23:22;101129.91;;;30.98;69.86
23223;BME280;11780;13.904;100.620;2023-05-01T02:25:56;101124.72;;;30.97;69.60
23223;BME280;11780;13.904;100.620;2023-05-01T03:40:48;101079.19;;;30.94;67.96
23223;BME280;11780;13.904;100.620;2023-05-01T03:43:37;101075.03;;;31.06;67.87
23223;BME280;11780;13.904;100.620;2023-05-01T03:46:16;101069.75;;;31.18;66.99
23223;BME280;11780;13.904;100.620;2023-05-01T03:48:48;101062.47;;;31.31;66.31
23223;BME280;11780;13.904;100.620;2023-05-01T03:51:19;101044.63;;;31.37;66.42
23223;BME280;11780;13.904;100.620;2023-05-01T03:53:52;101052.78;;;31.42;65.99
23223;BME280;11780;13.904;100.620;2023-05-01T03:56:30;101049.56;;;31.49;65.83
23223;BME280;11780;13.904;100.620;2023-05-01T03:59:05;101054.91;;;31.54;65.71
23223;BME280;11780;13.904;100.620;2023-05-01T04:01:36;101051.00;;;31.55;65.49
23223;BME280;11780;13.904;100.620;2023-05-01T04:04:08;101043.06;;;31.54;65.83
23223;BME280;11780;13.904;100.620;2023-05-01T04:06:42;101039.97;;;31.64;65.12
23223;BME280;11780;13.904;100.620;2023-05-01T04:09:13;101044.53;;;31.69;64.97
23223;BME280;11780;13.904;100.620;2023-05-01T04:11:43;101040.03;;;31.73;64.87
23223;BME280;11780;13.904;100.620;2023-05-01T04:14:15;101032.22;;;31.75;64.60
23223;BME280;11780;13.904;100.620;2023-05-01T04:16:46;101027.69;;;31.79;64.73
23223;BME280;11780;13.904;100.620;2023-05-01T04:19:17;101035.34;;;31.82;64.54
23223;BME280;11780;13.904;100.620;2023-05-01T04:21:52;101037.78;;;31.93;63.97
23223;BME280;11780;13.904;100.620;2023-05-01T04:24:24;101034.38;;;31.96;63.61
23223;BME280;11780;13.904;100.620;2023-05-01T04:26:55;101037.13;;;31.96;63.52
23223;BME280;11780;13.904;100.620;2023-05-01T04:29:25;101027.69;;;31.97;63.17
23223;BME280;11780;13.904;100.620;2023-05-01T04:31:56;101042.34;;;32.06;63.32
23223;BME280;11780;13.904;100.620;2023-05-01T04:34:26;101036.00;;;32.14;62.74
23223;BME280;11780;13.904;100.620;2023-05-01T04:36:58;101029.34;;;32.15;62.55
23223;BME280;11780;13.904;100.620;2023-05-01T04:39:28;101026.38;;;32.03;63.04
23223;BME280;11780;13.904;100.620;2023-05-01T04:41:59;101015.66;;;32.01;63.23
23223;BME280;11780;13.904;100.620;2023-05-01T04:44:30;101021.19;;;32.10;63.10
23223;BME280;11780;13.904;100.620;2023-05-01T04:47:03;101025.09;;;32.09;62.80
23223;BME280;11780;13.904;100.620;2023-05-01T04:49:35;101012.88;;;32.01;62.90
23223;BME280;11780;13.904;100.620;2023-05-01T04:52:05;101000.69;;;32.11;62.65
23223;BME280;11780;13.904;100.620;2023-05-01T04:54:49;100994.66;;;32.09;62.17
23223;BME280;11780;13.904;100.620;2023-05-01T04:57:22;100994.00;;;32.12;62.04
23223;BME280;11780;13.904;100.620;2023-05-01T04:59:53;100988.63;;;32.25;61.65
23223;BME280;11780;13.904;100.620;2023-05-01T05:02:24;100983.25;;;32.19;61.83
23223;BME280;11780;13.904;100.620;2023-05-01T05:04:55;100979.03;;;32.22;61.84
23223;BME280;11780;13.904;100.620;2023-05-01T05:07:26;100977.06;;;32.23;62.01
23223;BME280;11780;13.904;100.620;2023-05-01T05:10:15;100973.16;;;32.24;61.95
23223;BME280;11780;13.904;100.620;2023-05-01T05:12:55;100967.28;;;32.25;62.11
23223;BME280;11780;13.904;100.620;2023-05-01T05:15:26;100963.72;;;32.33;61.92
23223;BME280;11780;13.904;100.620;2023-05-01T05:17:56;100966.00;;;32.40;61.56
23223;BME280;11780;13.904;100.620;2023-05-01T05:20:27;100954.25;;;32.43;61.02
23223;BME280;11780;13.904;100.620;2023-05-01T05:22:57;100949.22;;;32.45;61.01
23223;BME280;11780;13.904;100.620;2023-05-01T05:25:28;100941.53;;;32.51;61.02
23223;BME280;11780;13.904;100.620;2023-05-01T05:27:58;100941.38;;;32.47;61.21
23223;BME280;11780;13.904;100.620;2023-05-01T05:30:29;100930.97;;;32.44;61.19
23223;BME280;11780;13.904;100.620;2023-05-01T05:33:02;100935.03;;;32.47;61.14
23223;BME280;11780;13.904;100.620;2023-05-01T05:35:34;100935.16;;;32.50;61.03
23223;BME280;11780;13.904;100.620;2023-05-01T05:38:05;100932.75;;;32.49;61.06
23223;BME280;11780;13.904;100.620;2023-05-01T05:40:38;100921.94;;;32.56;60.83
23223;BME280;11780;13.904;100.620;2023-05-01T05:43:08;100911.06;;;32.51;nan
23223;BME280;11780;13.904;100.620;2023-05-01T05:45:39;100901.94;;;32.50;nan
23223;BME280;11780;13.904;100.620;2023-05-01T05:48:10;100904.88;;;32.54;nan
23223;BME280;11780;13.904;100.620;2023-05-01T05:50:40;100898.66;;;32.57;nan
23223;BME280;11780;13.904;100.620;2023-05-01T05:53:11;100887.53;;;32.66;nan
23223;BME280;11780;13.904;100.620;2023-05-01T05:55:43;100881.38;;;32.60;nan
23223;BME280;11780;13.904;100.620;2023-05-01T05:58:14;100875.53;;;32.62;nan
23223;BME280;11780;13.904;100.620;2023-05-01T06:00:52;100867.00;;;32.67;nan
23223;BME280;11780;13.904;100.620;2023-05-01T06:03:24;100867.63;;;32.73;nan
23223;BME280;11780;13.904;100.620;2023-05-01T06:06:00;100853.13;;;32.76;nan
23223;BME280;11780;13.904;100.620;2023-05-01T06:08:30;100848.41;;;32.76;nan
23223;BME280;11780;13.904;100.620;2023-05-01T06:11:03;100839.31;;;32.67;nan
23223;BME280;11780;13.904;100.620;2023-05-01T06:13:37;100829.94;;;32.80;nan
23223;BME280;11780;13.904;100.620;2023-05-01T06:16:08;100818.38;;;32.78;nan
23223;BME280;11780;13.904;100.620;2023-05-01T06:18:38;100819.75;;;32.72;nan
23223;BME280;11780;13.904;100.620;2023-05-01T06:21:11;100802.16;;;32.68;nan
23223;BME280;11780;13.904;100.620;2023-05-01T06:23:43;100806.09;;;32.67;nan
23223;BME280;11780;13.904;100.620;2023-05-01T06:26:25;100794.53;;;32.65;nan
23223;BME280;11780;13.904;100.620;2023-05-01T06:28:56;100790.63;;;32.66;nan
23223;BME280;11780;13.904;100.620;2023-05-01T06:31:27;100786.31;;;32.77;nan
23223;BME280;11780;13.904;100.620;2023-05-01T06:33:58;100789.59;;;32.71;nan
23223;BME280;11780;13.904;100.620;2023-05-01T06:36:36;100776.84;;;32.78;nan
23223;BME280;11780;13.904;100.620;2023-05-01T06:39:06;100776.69;;;32.84;nan
23223;BME280;11780;13.904;100.620;2023-05-01T06:41:36;100770.16;;;32.79;nan
23223;BME280;11780;13.904;100.620;2023-05-01T06:44:07;100758.25;;;32.88;nan
23223;BME280;11780;13.904;100.620;2023-05-01T06:46:38;100752.91;;;32.83;nan
23223;BME280;11780;13.904;100.620;2023-05-01T06:49:08;100745.56;;;32.78;nan
23223;BME280;11780;13.904;100.620;2023-05-01T06:51:38;100743.44;;;32.84;nan
23223;BME280;11780;13.904;100.620;2023-05-01T06:54:11;100734.97;;;32.80;nan
23223;BME280;11780;13.904;100.620;2023-05-01T06:56:41;100735.16;;;32.75;nan
23223;BME280;11780;13.904;100.620;2023-05-01T06:59:12;100726.84;;;32.75;nan
23223;BME280;11780;13.904;100.620;2023-05-01T07:01:43;100728.81;;;32.74;nan
23223;BME280;11780;13.904;100.620;2023-05-01T07:04:13;100720.84;;;32.73;nan
23223;BME280;11780;13.904;100.620;2023-05-01T07:06:43;100716.78;;;32.70;nan
23223;BME280;11780;13.904;100.620;2023-05-01T07:09:14;100708.34;;;32.67;nan
23223;BME280;11780;13.904;100.620;2023-05-01T07:11:44;100700.97;;;32.71;nan
23223;BME280;11780;13.904;100.620;2023-05-01T07:14:15;100699.22;;;32.66;nan
23223;BME280;11780;13.904;100.620;2023-05-01T07:16:46;100700.84;;;32.67;nan
23223;BME280;11780;13.904;100.620;2023-05-01T07:19:16;100693.50;;;32.71;nan
23223;BME280;11780;13.904;100.620;2023-05-01T07:21:47;100696.38;;;32.75;nan
23223;BME280;11780;13.904;100.620;2023-05-01T07:24:18;100692.81;;;32.74;nan
23223;BME280;11780;13.904;100.620;2023-05-01T07:26:49;100693.16;;;32.73;nan
23223;BME280;11780;13.904;100.620;2023-05-01T07:29:20;100686.25;;;32.79;nan
23223;BME280;11780;13.904;100.620;2023-05-01T07:31:50;100684.28;;;32.79;nan
23223;BME280;11780;13.904;100.620;2023-05-01T07:34:21;100678.09;;;32.83;nan
23223;BME280;11780;13.904;100.620;2023-05-01T07:36:51;100670.94;;;32.82;nan
23223;BME280;11780;13.904;100.620;2023-05-01T07:39:22;100660.97;;;32.80;nan
23223;BME280;11780;13.904;100.620;2023-05-01T07:41:52;100657.75;;;32.78;nan
23223;BME280;11780;13.904;100.620;2023-05-01T07:44:22;100644.72;;;32.79;nan
23223;BME280;11780;13.904;100.620;2023-05-01T07:46:53;100639.69;;;32.81;nan
23223;BME280;11780;13.904;100.620;2023-05-01T07:49:23;100627.44;;;32.82;nan
23223;BME280;11780;13.904;100.620;2023-05-01T07:51:54;100613.72;;;32.86;nan
23223;BME280;11780;13.904;100.620;2023-05-01T07:54:24;100606.91;;;32.83;nan
23223;BME280;11780;13.904;100.620;2023-05-01T07:56:54;100607.72;;;32.84;nan
23223;BME280;11780;13.904;100.620;2023-05-01T07:59:25;100611.97;;;32.81;nan
23223;BME280;11780;13.904;100.620;2023-05-01T08:01:55;100600.56;;;32.83;nan
23223;BME280;11780;13.904;100.620;2023-05-01T08:04:27;100598.94;;;32.82;nan
23223;BME280;11780;13.904;100.620;2023-05-01T08:06:58;100590.63;;;32.82;nan
23223;BME280;11780;13.904;100.620;2023-05-01T08:09:28;100595.94;;;32.87;nan
23223;BME280;11780;13.904;100.620;2023-05-01T08:11:59;100604.75;;;32.89;nan
23223;BME280;11780;13.904;100.620;2023-05-01T08:14:32;100597.50;;;32.97;nan
23223;BME280;11780;13.904;100.620;2023-05-01T08:17:03;100602.09;;;32.92;nan
23223;BME280;11780;13.904;100.620;2023-05-01T08:19:33;100592.75;;;32.97;nan
23223;BME280;11780;13.904;100.620;2023-05-01T08:22:04;100582.00;;;32.95;nan
23223;BME280;11780;13.904;100.620;2023-05-01T08:24:34;100578.00;;;33.05;nan
23223;BME280;11780;13.904;100.620;2023-05-01T08:27:05;100573.13;;;33.02;nan
23223;BME280;11780;13.904;100.620;2023-05-01T08:29:35;100575.47;;;33.13;nan
23223;BME280;11780;13.904;100.620;2023-05-01T08:32:05;100585.97;;;33.07;nan
23223;BME280;11780;13.904;100.620;2023-05-01T08:34:36;100582.63;;;33.14;nan
23223;BME280;11780;13.904;100.620;2023-05-01T08:37:06;100575.47;;;33.13;nan
23223;BME280;11780;13.904;100.620;2023-05-01T08:39:36;100578.00;;;33.05;nan
23223;BME280;11780;13.904;100.620;2023-05-01T08:42:07;100567.47;;;32.99;nan
23223;BME280;11780;13.904;100.620;2023-05-01T08:44:37;100571.53;;;33.01;nan
23223;BME280;11780;13.904;100.620;2023-05-01T08:47:18;100562.66;;;33.20;nan
23223;BME280;11780;13.904;100.620;2023-05-01T08:49:49;100558.72;;;33.09;nan
23223;BME280;11780;13.904;100.620;2023-05-01T08:52:21;100559.78;;;33.17;nan
23223;BME280;11780;13.904;100.620;2023-05-01T08:54:53;100548.91;;;33.12;nan
23223;BME280;11780;13.904;100.620;2023-05-01T08:57:26;100548.22;;;33.15;nan
23223;BME280;11780;13.904;100.620;2023-05-01T09:00:00;100537.34;;;33.09;nan
23223;BME280;11780;13.904;100.620;2023-05-01T09:02:34;100531.38;;;33.07;nan
23223;BME280;11780;13.904;100.620;2023-05-01T09:05:06;100525.81;;;33.07;nan
23223;BME280;11780;13.904;100.620;2023-05-01T09:07:37;100532.50;;;33.06;nan
23223;BME280;11780;13.904;100.620;2023-05-01T09:10:11;100523.25;;;33.02;nan
23223;BME280;11780;13.904;100.620;2023-05-01T09:12:43;100521.19;;;32.99;nan
23223;BME280;11780;13.904;100.620;2023-05-01T09:15:16;100528.09;;;32.93;nan
23223;BME280;11780;13.904;100.620;2023-05-01T09:17:47;100525.34;;;32.93;nan
23223;BME280;11780;13.904;100.620;2023-05-01T09:20:18;100526.13;;;32.93;nan
23223;BME280;11780;13.904;100.620;2023-05-01T09:22:49;100527.41;;;32.96;nan
23223;BME280;11780;13.904;100.620;2023-05-01T09:25:19;100537.09;;;32.90;nan
23223;BME280;11780;13.904;100.620;2023-05-01T09:27:50;100545.88;;;32.92;nan
23223;BME280;11780;13.904;100.620;2023-05-01T09:30:31;100541.03;;;32.89;nan
23223;BME280;11780;13.904;100.620;2023-05-01T09:33:13;100540.47;;;32.95;nan
23223;BME280;11780;13.904;100.620;2023-05-01T09:35:56;100555.19;;;32.87;nan
23223;BME280;11780;13.904;100.620;2023-05-01T09:38:28;100564.34;;;33.00;nan
23223;BME280;11780;13.904;100.620;2023-05-01T09:41:04;100571.53;;;33.01;nan
23223;BME280;11780;13.904;100.620;2023-05-01T09:43:35;100580.19;;;33.00;nan
23223;BME280;11780;13.904;100.620;2023-05-01T09:46:07;100577.84;;;33.02;nan
23223;BME280;11780;13.904;100.620;2023-05-01T09:48:41;100582.59;;;33.01;nan
23223;BME280;11780;13.904;100.620;2023-05-01T09:53:54;100580.31;;;33.03;nan
23223;BME280;11780;13.904;100.620;2023-05-01T09:56:26;100587.69;;;33.12;nan
23223;BME280;11780;13.904;100.620;2023-05-01T09:59:13;100585.16;;;33.06;nan
23223;BME280;11780;13.904;100.620;2023-05-01T10:01:45;100577.31;;;33.08;nan
23223;BME280;11780;13.904;100.620;2023-05-01T10:04:28;100577.31;;;33.08;nan
23223;BME280;11780;13.904;100.620;2023-05-01T10:07:11;100570.47;;;33.06;nan
23223;BME280;11780;13.904;100.620;2023-05-01T10:09:45;100558.81;;;33.00;nan
23223;BME280;11780;13.904;100.620;2023-05-01T10:12:25;100559.50;;;32.97;nan
23223;BME280;11780;13.904;100.620;2023-05-01T10:14:56;100557.56;;;32.98;nan
23223;BME280;11780;13.904;100.620;2023-05-01T10:17:32;100555.94;;;32.97;nan
23223;BME280;11780;13.904;100.620;2023-05-01T10:20:05;100553.94;;;32.97;nan
23223;BME280;11780;13.904;100.620;2023-05-01T10:22:36;100553.28;;;33.00;nan
23223;BME280;11780;13.904;100.620;2023-05-01T10:25:09;100544.28;;;33.16;nan
23223;BME280;11780;13.904;100.620;2023-05-01T10:27:44;100546.13;;;33.12;nan
23223;BME280;11780;13.904;100.620;2023-05-01T10:30:16;100551.66;;;33.12;nan
23223;BME280;11780;13.904;100.620;2023-05-01T10:32:47;100555.25;;;33.12;nan
23223;BME280;11780;13.904;100.620;2023-05-01T10:35:18;100560.81;;;33.12;nan
23223;BME280;11780;13.904;100.620;2023-05-01T10:38:01;100582.03;;;33.08;nan
23223;BME280;11780;13.904;100.620;2023-05-01T10:40:46;100590.94;;;33.14;nan
23223;BME280;11780;13.904;100.620;2023-05-01T10:51:15;100610.72;;;33.24;nan
23223;BME280;11780;13.904;100.620;2023-05-01T10:56:43;100608.88;;;33.29;nan
23223;BME280;11780;13.904;100.620;2023-05-01T10:59:13;100605.41;;;33.32;nan
23223;BME280;11780;13.904;100.620;2023-05-01T11:01:45;100609.00;;;33.32;nan
23223;BME280;11780;13.904;100.620;2023-05-01T11:07:14;100636.84;;;33.36;nan
23223;BME280;11780;13.904;100.620;2023-05-01T11:09:53;100657.09;;;33.36;nan
23223;BME280;11780;13.904;100.620;2023-05-01T11:15:26;100648.78;;;33.36;nan
23223;BME280;11780;13.904;100.620;2023-05-01T11:17:58;100662.66;;;33.49;nan
23223;BME280;11780;13.904;100.620;2023-05-01T11:23:05;100656.72;;;33.38;nan
23223;BME280;11780;13.904;100.620;2023-05-01T11:25:36;100650.41;;;33.37;nan
23223;BME280;11780;13.904;100.620;2023-05-01T11:28:07;100650.41;;;33.37;nan
23223;BME280;11780;13.904;100.620;2023-05-01T11:30:39;100647.72;;;33.41;nan
23223;BME280;11780;13.904;100.620;2023-05-01T11:33:09;100659.50;;;33.38;nan
23223;BME280;11780;13.904;100.620;2023-05-01T11:35:40;100671.25;;;33.35;nan
23223;BME280;11780;13.904;100.620;2023-05-01T11:38:17;100687.28;;;33.29;nan
23223;BME280;11780;13.904;100.620;2023-05-01T11:40:56;100699.75;;;33.23;nan
23223;BME280;11780;13.904;100.620;2023-05-01T11:43:27;100709.22;;;33.22;nan
23223;BME280;11780;13.904;100.620;2023-05-01T11:45:58;100719.97;;;33.23;nan
23223;BME280;11780;13.904;100.620;2023-05-01T11:48:31;100741.88;;;33.16;nan
23223;BME280;11780;13.904;100.620;2023-05-01T11:51:11;100739.91;;;33.17;nan
23223;BME280;11780;13.904;100.620;2023-05-01T11:53:42;100737.34;;;33.12;nan
23223;BME280;11780;13.904;100.620;2023-05-01T11:56:21;100740.19;;;33.03;nan
23223;BME280;11780;13.904;100.620;2023-05-01T11:58:58;100751.75;;;33.05;nan
23223;BME280;11780;13.904;100.620;2023-05-01T12:01:36;100758.13;;;33.05;nan
23223;BME280;11780;13.904;100.620;2023-05-01T12:04:07;100762.72;;;33.01;nan
23223;BME280;11780;13.904;100.620;2023-05-01T12:06:43;100773.00;;;33.01;nan
23223;BME280;11780;13.904;100.620;2023-05-01T12:09:23;100774.13;;;33.00;nan
23223;BME280;11780;13.904;100.620;2023-05-01T12:11:54;100788.53;;;32.93;nan
23223;BME280;11780;13.904;100.620;2023-05-01T12:14:28;100788.19;;;32.94;nan
23223;BME280;11780;13.904;100.620;2023-05-01T12:16:59;100792.09;;;32.93;nan
23223;BME280;11780;13.904;100.620;2023-05-01T12:19:33;100791.16;;;32.89;nan
23223;BME280;11780;13.904;100.620;2023-05-01T12:22:05;100794.38;;;32.91;nan
23223;BME280;11780;13.904;100.620;2023-05-01T12:24:36;100794.59;;;32.86;nan
23223;BME280;11780;13.904;100.620;2023-05-01T12:27:07;100796.06;;;32.84;nan
23223;BME280;11780;13.904;100.620;2023-05-01T12:29:40;100809.94;;;32.84;nan
23223;BME280;11780;13.904;100.620;2023-05-01T12:32:13;100808.31;;;32.83;nan
23223;BME280;11780;13.904;100.620;2023-05-01T12:34:44;100804.09;;;32.76;nan
23223;BME280;11780;13.904;100.620;2023-05-01T12:37:14;100796.09;;;32.75;nan
23223;BME280;11780;13.904;100.620;2023-05-01T12:39:45;100814.19;;;32.81;nan
23223;BME280;11780;13.904;100.620;2023-05-01T12:42:15;100816.81;;;32.77;nan
23223;BME280;11780;13.904;100.620;2023-05-01T12:44:47;100824.63;;;32.75;nan
23223;BME280;11780;13.904;100.620;2023-05-01T12:47:17;100823.94;;;32.78;nan
23223;BME280;11780;13.904;100.620;2023-05-01T12:49:48;100825.44;;;32.76;nan
23223;BME280;11780;13.904;100.620;2023-05-01T12:52:25;100815.34;;;32.71;nan
23223;BME280;11780;13.904;100.620;2023-05-01T12:55:03;100817.13;;;32.76;nan
23223;BME280;11780;13.904;100.620;2023-05-01T12:57:34;100820.41;;;32.69;nan
23223;BME280;11780;13.904;100.620;2023-05-01T13:00:05;100822.72;;;32.67;nan
23223;BME280;11780;13.904;100.620;2023-05-01T13:02:36;100832.31;;;32.70;nan
23223;BME280;11780;13.904;100.620;2023-05-01T13:05:08;100833.13;;;32.70;nan
23223;BME280;11780;13.904;100.620;2023-05-01T13:07:46;100825.28;;;32.72;nan
23223;BME280;11780;13.904;100.620;2023-05-01T13:10:28;100825.16;;;32.69;nan
23223;BME280;11780;13.904;100.620;2023-05-01T13:13:00;100843.06;;;32.71;nan
23223;BME280;11780;13.904;100.620;2023-05-01T13:15:30;100833.13;;;32.70;nan
23223;BME280;11780;13.904;100.620;2023-05-01T13:18:04;100832.97;;;32.67;nan
23223;BME280;11780;13.904;100.620;2023-05-01T13:20:35;100840.28;;;32.71;nan
23223;BME280;11780;13.904;100.620;2023-05-01T13:23:11;100832.47;;;32.73;nan
23223;BME280;11780;13.904;100.620;2023-05-01T13:25:45;100830.97;;;32.76;nan
23223;BME280;11780;13.904;100.620;2023-05-01T13:28:18;100836.38;;;32.72;nan
23223;BME280;11780;13.904;100.620;2023-05-01T13:30:49;100837.50;;;32.71;nan
23223;BME280;11780;13.904;100.620;2023-05-01T13:33:20;100840.16;;;32.68;nan
23223;BME280;11780;13.904;100.620;2023-05-01T13:35:51;100853.00;;;32.72;nan
23223;BME280;11780;13.904;100.620;2023-05-01T13:38:22;100875.16;;;32.72;nan
23223;BME280;11780;13.904;100.620;2023-05-01T13:40:53;100877.25;;;32.75;nan
23223;BME280;11780;13.904;100.620;2023-05-01T13:43:24;100883.72;;;32.79;nan
23223;BME280;11780;13.904;100.620;2023-05-01T13:45:56;100876.78;;;32.73;nan
23223;BME280;11780;13.904;100.620;2023-05-01T13:48:29;100899.91;;;32.77;nan
23223;BME280;11780;13.904;100.620;2023-05-01T13:51:00;100893.66;;;32.80;nan
23223;BME280;11780;13.904;100.620;2023-05-01T13:53:31;100894.34;;;32.77;nan
23223;BME280;11780;13.904;100.620;2023-05-01T13:56:05;100899.56;;;32.79;nan
23223;BME280;11780;13.904;100.620;2023-05-01T13:58:38;100901.50;;;32.78;nan
23223;BME280;11780;13.904;100.620;2023-05-01T14:01:16;100894.81;;;32.79;nan
23223;BME280;11780;13.904;100.620;2023-05-01T14:03:48;100899.41;;;32.84;nan
23223;BME280;11780;13.904;100.620;2023-05-01T14:06:20;100906.56;;;32.85;nan
23223;BME280;11780;13.904;100.620;2023-05-01T14:08:51;100901.34;;;32.84;nan
23223;BME280;11780;13.904;100.620;2023-05-01T14:11:23;100913.25;;;32.84;nan
23223;BME280;11780;13.904;100.620;2023-05-01T14:13:54;100918.44;;;32.86;nan
23223;BME280;11780;13.904;100.620;2023-05-01T14:16:28;100919.59;;;32.85;nan
23223;BME280;11780;13.904;100.620;2023-05-01T14:19:00;100925.78;;;32.82;nan
23223;BME280;11780;13.904;100.620;2023-05-01T14:21:30;100927.41;;;32.83;nan
23223;BME280;11780;13.904;100.620;2023-05-01T14:24:04;100927.41;;;32.83;nan
23223;BME280;11780;13.904;100.620;2023-05-01T14:26:41;100932.66;;;32.84;nan
23223;BME280;11780;13.904;100.620;2023-05-01T14:29:21;100943.38;;;32.86;nan
23223;BME280;11780;13.904;100.620;2023-05-01T14:31:52;100951.22;;;32.84;nan
23223;BME280;11780;13.904;100.620;2023-05-01T14:34:25;100953.81;;;32.80;nan
23223;BME280;11780;13.904;100.620;2023-05-01T14:36:56;100963.91;;;32.85;nan
23223;BME280;11780;13.904;100.620;2023-05-01T14:39:31;100971.56;;;32.88;nan
23223;BME280;11780;13.904;100.620;2023-05-01T14:42:03;100964.25;;;32.83;nan
23223;BME280;11780;13.904;100.620;2023-05-01T14:44:38;100966.19;;;32.83;nan
23223;BME280;11780;13.904;100.620;2023-05-01T14:47:09;100974.19;;;32.84;nan
23223;BME280;11780;13.904;100.620;2023-05-01T14:49:40;100972.22;;;32.85;nan
23223;BME280;11780;13.904;100.620;2023-05-01T14:54:36;100973.88;;;32.68;62.71
23223;BME280;11780;13.904;100.620;2023-05-01T14:57:12;100979.13;;;32.61;62.58
23223;BME280;11780;13.904;100.620;2023-05-01T14:59:42;100971.66;;;32.53;63.03
23223;BME280;11780;13.904;100.620;2023-05-01T15:02:12;100974.41;;;32.53;62.84
23223;BME280;11780;13.904;100.620;2023-05-01T15:04:43;100975.88;;;32.59;63.44